Time;durP1;ratioP1;P1;durP2;ratioP2;P2;SDS_P1;SDS_P2;PMS_P1;PMS_P2;Temp;Humidity;BMP_temperature;BMP_pressure;BME280_temperature;BME280_humidity;BME280_pressure;Samples;Min_cycle;Max_cycle;Signal;HPM_P1;HPM_P2
2022/07/26 00:00:45;;;;;;;0.60;0.40;;;;;;;13.99;70.76;100546.28;4865990;29;20419;-73
2022/07/26 00:03:11;;;;;;;2.45;0.55;;;;;;;13.94;70.85;100547.13;4869144;29;20487;-71
2022/07/26 00:05:37;;;;;;;1.35;0.68;;;;;;;13.98;70.59;100547.41;4879774;29;20033;-72
2022/07/26 00:08:10;;;;;;;4.55;0.40;;;;;;;13.94;71.33;100544.38;4865171;29;20039;-72
2022/07/26 00:10:45;;;;;;;2.15;0.50;;;;;;;13.89;70.93;100544.44;4885881;29;20395;-74
2022/07/26 00:13:11;;;;;;;1.83;0.93;;;;;;;13.86;71.48;100551.31;4881014;29;20032;-71
2022/07/26 00:15:37;;;;;;;2.50;0.77;;;;;;;13.87;71.92;100557.63;4863959;29;20130;-71
2022/07/26 00:18:04;;;;;;;1.33;0.55;;;;;;;13.84;71.69;100552.69;4891340;29;20028;-73
2022/07/26 00:20:29;;;;;;;2.28;0.70;;;;;;;13.82;72.13;100560.41;4881526;29;20029;-71
2022/07/26 00:22:55;;;;;;;1.13;0.50;;;;;;;13.79;72.21;100556.31;4896176;29;20116;-73
2022/07/26 00:25:20;;;;;;;2.38;0.57;;;;;;;13.78;72.04;100555.50;4895448;29;20124;-72
2022/07/26 00:27:46;;;;;;;1.70;0.63;;;;;;;13.75;73.02;100550.53;4860923;29;20036;-72
2022/07/26 00:30:13;;;;;;;4.22;0.57;;;;;;;13.75;72.53;100561.53;4872051;29;20048;-72
2022/07/26 00:32:38;;;;;;;1.65;0.55;;;;;;;13.74;72.58;100565.41;4895247;29;20044;-72
2022/07/26 00:35:04;;;;;;;3.40;0.70;;;;;;;13.71;72.68;100571.47;4871161;29;20504;-72
2022/07/26 00:37:30;;;;;;;1.90;0.60;;;;;;;13.67;72.69;100570.41;4879453;29;20043;-71
2022/07/26 00:39:56;;;;;;;3.10;0.70;;;;;;;13.63;73.00;100563.81;4868819;29;20025;-72
2022/07/26 00:42:21;;;;;;;4.10;0.50;;;;;;;13.59;73.33;100568.22;4865312;29;20042;-72
2022/07/26 00:44:47;;;;;;;2.92;0.65;;;;;;;13.54;73.79;100571.03;4884187;29;20040;-73
2022/07/26 00:47:13;;;;;;;4.13;0.60;;;;;;;13.54;73.52;100576.50;4886684;29;20040;-71
2022/07/26 00:49:39;;;;;;;2.95;0.63;;;;;;;13.52;73.69;100578.69;4891675;29;20029;-72
2022/07/26 00:52:06;;;;;;;3.95;0.70;;;;;;;13.55;73.92;100576.22;4868139;29;20083;-72
2022/07/26 00:54:32;;;;;;;3.03;0.57;;;;;;;13.59;74.04;100579.22;4877833;29;20485;-73
2022/07/26 00:56:57;;;;;;;2.60;0.60;;;;;;;13.66;73.85;100566.00;4884469;29;20088;-71
2022/07/26 00:59:23;;;;;;;2.45;0.70;;;;;;;13.71;73.92;100565.97;4888084;29;20036;-72
2022/07/26 01:01:48;;;;;;;2.72;0.60;;;;;;;13.76;73.52;100568.69;4884117;29;20053;-72
2022/07/26 01:04:14;;;;;;;2.67;0.70;;;;;;;13.88;73.33;100570.28;4875160;29;20047;-71
2022/07/26 01:06:41;;;;;;;1.08;0.50;;;;;;;13.99;72.89;100577.34;4879680;29;20036;-72
2022/07/26 01:09:07;;;;;;;0.95;0.50;;;;;;;14.01;72.73;100564.13;4890992;29;20037;-73
2022/07/26 01:11:32;;;;;;;2.92;0.60;;;;;;;14.11;72.38;100572.31;4891485;29;20031;-72
2022/07/26 01:13:58;;;;;;;3.47;0.85;;;;;;;14.13;72.43;100567.34;4883249;29;20032;-72
2022/07/26 01:16:24;;;;;;;2.10;0.60;;;;;;;14.19;72.21;100570.88;4891609;29;20037;-72
2022/07/26 01:18:50;;;;;;;4.28;0.73;;;;;;;14.20;72.05;100577.19;4891237;29;20448;-73
2022/07/26 01:21:15;;;;;;;2.38;0.40;;;;;;;14.22;71.72;100585.97;4880982;29;20033;-71
2022/07/26 01:23:42;;;;;;;1.20;0.70;;;;;;;14.24;71.75;100589.28;4861342;29;20037;-72
2022/07/26 01:26:08;;;;;;;1.70;0.60;;;;;;;14.26;71.96;100595.31;4892601;29;20032;-73
2022/07/26 01:28:36;;;;;;;2.28;0.60;;;;;;;14.28;71.70;100590.31;4883153;29;20104;-73
2022/07/26 01:31:02;;;;;;;3.38;0.82;;;;;;;14.28;71.56;100595.81;4891280;29;20033;-73
2022/07/26 01:33:28;;;;;;;1.85;0.50;;;;;;;14.30;71.75;100596.38;4889412;29;20409;-73
2022/07/26 01:35:53;;;;;;;2.45;0.80;;;;;;;14.29;71.76;100591.97;4893415;29;20084;-72
2022/07/26 01:38:18;;;;;;;0.98;0.65;;;;;;;14.33;71.46;100593.06;4890819;29;20096;-73
2022/07/26 01:40:44;;;;;;;4.57;0.68;;;;;;;14.34;71.73;100588.34;4889553;29;20087;-72
2022/07/26 01:43:09;;;;;;;3.83;0.75;;;;;;;14.39;71.55;100591.91;4872188;29;20090;-72
2022/07/26 01:45:35;;;;;;;1.92;0.70;;;;;;;14.41;71.09;100588.84;4873868;29;20037;-72
2022/07/26 01:48:01;;;;;;;5.97;0.80;;;;;;;14.44;71.32;100591.03;4883242;29;20213;-70
2022/07/26 01:50:26;;;;;;;2.42;0.57;;;;;;;14.47;70.90;100594.03;4871029;29;20091;-71
2022/07/26 01:52:52;;;;;;;4.65;0.65;;;;;;;14.51;70.82;100596.22;4885029;29;20055;-71
2022/07/26 01:55:17;;;;;;;2.70;0.70;;;;;;;14.52;70.83;100595.09;4881536;29;20045;-71
2022/07/26 01:57:46;;;;;;;1.98;0.70;;;;;;;14.51;70.90;100590.72;4894821;29;20113;-70
2022/07/26 02:00:12;;;;;;;2.95;0.57;;;;;;;14.53;70.44;100593.97;4886662;29;20095;-71
2022/07/26 02:02:38;;;;;;;1.65;0.50;;;;;;;14.54;70.78;100595.63;4892145;29;20047;-71
2022/07/26 02:05:04;;;;;;;3.40;0.60;;;;;;;14.54;70.52;100588.19;4903545;29;20419;-71
2022/07/26 02:07:31;;;;;;;5.32;0.75;;;;;;;14.55;70.18;100586.28;4883772;29;20036;-72
2022/07/26 02:09:58;;;;;;;2.50;0.80;;;;;;;14.56;70.29;100585.97;4896490;29;20023;-72
2022/07/26 02:12:25;;;;;;;5.93;0.70;;;;;;;14.55;70.13;100578.81;4898584;29;20101;-71
2022/07/26 02:14:50;;;;;;;4.32;1.10;;;;;;;14.55;70.21;100578.03;4885237;29;20037;-71
2022/07/26 02:17:16;;;;;;;1.75;0.60;;;;;;;14.58;70.10;100583.75;4891067;29;20035;-70
2022/07/26 02:19:42;;;;;;;3.70;0.93;;;;;;;14.59;70.08;100593.66;4870073;29;20063;-72
2022/07/26 02:22:08;;;;;;;3.72;0.60;;;;;;;14.58;69.99;100586.50;4894575;29;20033;-72
2022/07/26 02:24:36;;;;;;;3.95;0.85;;;;;;;14.62;69.92;100586.78;4888172;29;20112;-71
2022/07/26 02:27:02;;;;;;;5.72;0.75;;;;;;;14.62;70.16;100589.53;4895570;29;20073;-72
2022/07/26 02:29:28;;;;;;;3.88;1.10;;;;;;;14.63;70.08;100580.16;4880944;29;20036;-72
2022/07/26 02:31:54;;;;;;;2.22;0.50;;;;;;;14.63;69.82;100585.66;4872524;29;20029;-70
2022/07/26 02:34:20;;;;;;;2.72;0.73;;;;;;;14.64;70.14;100581.81;4898038;29;20036;-70
2022/07/26 02:36:47;;;;;;;5.85;0.90;;;;;;;14.65;70.24;100588.97;4894070;29;20048;-72
2022/07/26 02:39:13;;;;;;;5.70;0.95;;;;;;;14.68;69.96;100587.56;4893936;29;20021;-73
2022/07/26 02:41:39;;;;;;;3.53;0.90;;;;;;;14.68;70.07;100577.38;4891561;29;20024;-70
2022/07/26 02:44:05;;;;;;;4.78;0.82;;;;;;;14.66;70.13;100582.34;4880787;29;20052;-70
2022/07/26 02:46:31;;;;;;;0.80;0.52;;;;;;;14.64;70.03;100584.56;4881443;29;20059;-73
2022/07/26 02:48:58;;;;;;;2.90;0.70;;;;;;;14.68;70.12;100593.06;4880024;29;20033;-71
2022/07/26 02:51:23;;;;;;;5.63;0.75;;;;;;;14.70;69.79;100588.91;4894711;29;20031;-71
2022/07/26 02:53:49;;;;;;;4.80;0.98;;;;;;;14.68;69.94;100587.56;4887133;29;20025;-71
2022/07/26 02:56:14;;;;;;;3.85;0.60;;;;;;;14.70;70.09;100597.16;4869820;29;20048;-70
2022/07/26 02:58:40;;;;;;;2.05;0.70;;;;;;;14.72;69.96;100589.44;4869666;29;20041;-71
2022/07/26 03:01:05;;;;;;;2.30;0.73;;;;;;;14.71;69.69;100598.81;4866295;29;20065;-72
2022/07/26 03:03:31;;;;;;;2.00;0.52;;;;;;;14.72;69.63;100600.47;4878147;29;20048;-70
2022/07/26 03:05:56;;;;;;;3.58;0.93;;;;;;;14.74;69.62;100598.22;4889104;29;20445;-70
2022/07/26 03:08:23;;;;;;;3.50;0.90;;;;;;;14.77;69.84;100592.13;4874387;29;20028;-71
2022/07/26 03:10:49;;;;;;;2.22;0.70;;;;;;;14.80;69.52;100585.25;4888479;29;20029;-71
2022/07/26 03:13:14;;;;;;;1.48;0.55;;;;;;;14.81;69.60;100590.44;4893953;29;20041;-70
2022/07/26 03:15:40;;;;;;;4.90;0.68;;;;;;;14.84;69.82;100597.31;4875890;29;20123;-73
2022/07/26 03:18:05;;;;;;;3.35;0.73;;;;;;;14.83;69.46;100590.16;4883758;29;20775;-71
2022/07/26 03:20:31;;;;;;;3.95;0.93;;;;;;;14.83;69.17;100591.00;4896121;29;20036;-71
2022/07/26 03:22:56;;;;;;;2.25;0.70;;;;;;;14.89;69.15;100588.19;4868376;29;20357;-71
2022/07/26 03:25:22;;;;;;;2.20;1.02;;;;;;;14.83;69.13;100585.50;4894034;29;20037;-72
2022/07/26 03:27:47;;;;;;;3.28;0.70;;;;;;;14.90;69.60;100590.63;4870812;29;20031;-72
2022/07/26 03:30:14;;;;;;;2.42;0.80;;;;;;;14.92;69.46;100602.19;4892979;29;20043;-70
2022/07/26 03:32:39;;;;;;;1.52;0.40;;;;;;;14.90;69.67;100603.59;4871906;29;20485;-74
2022/07/26 03:35:07;;;;;;;3.88;0.60;;;;;;;14.93;69.43;100606.56;4896521;29;20092;-73
2022/07/26 03:37:32;;;;;;;3.85;0.57;;;;;;;14.96;69.18;100610.69;4876528;29;20032;-74
2022/07/26 03:39:58;;;;;;;1.75;0.50;;;;;;;14.97;69.29;100610.38;4871669;29;20358;-72
2022/07/26 03:42:23;;;;;;;3.97;0.95;;;;;;;14.99;69.50;100610.09;4885605;29;20067;-71
2022/07/26 03:44:49;;;;;;;3.35;0.68;;;;;;;14.98;68.88;100609.28;4885220;29;20111;-71
2022/07/26 03:47:14;;;;;;;1.40;0.80;;;;;;;14.98;69.46;100608.44;4860017;29;20404;-71
2022/07/26 03:49:40;;;;;;;3.17;1.00;;;;;;;14.94;69.11;100613.72;4882897;29;20029;-73
2022/07/26 03:52:05;;;;;;;3.15;0.77;;;;;;;14.93;69.38;100612.09;4877527;29;20045;-72
2022/07/26 03:54:31;;;;;;;2.45;0.65;;;;;;;14.90;69.28;100617.38;4882599;29;20093;-72
2022/07/26 03:56:56;;;;;;;2.30;0.75;;;;;;;14.92;69.55;100631.66;4863960;29;20044;-72
2022/07/26 03:59:24;;;;;;;2.17;0.60;;;;;;;14.90;69.52;100628.38;4887324;29;20056;-71
2022/07/26 04:01:50;;;;;;;1.95;0.82;;;;;;;14.91;69.16;100632.75;4862652;29;20104;-71
2022/07/26 04:04:17;;;;;;;2.75;0.75;;;;;;;14.92;69.32;100620.63;4873152;29;20114;-72
2022/07/26 04:06:44;;;;;;;4.13;0.82;;;;;;;14.89;69.43;100621.22;4900596;29;20043;-70
2022/07/26 04:09:10;;;;;;;2.70;0.63;;;;;;;14.89;69.61;100615.72;4881808;29;20048;-71
2022/07/26 04:11:35;;;;;;;2.08;0.85;;;;;;;14.87;69.56;100626.19;4883459;29;20041;-71
2022/07/26 04:14:02;;;;;;;6.07;0.90;;;;;;;14.85;69.35;100629.25;4895305;29;20030;-71
2022/07/26 04:16:28;;;;;;;2.15;0.73;;;;;;;14.84;69.53;100639.41;4871869;29;20523;-70
2022/07/26 04:18:54;;;;;;;5.00;0.95;;;;;;;14.86;69.84;100638.31;4887157;29;20032;-71
2022/07/26 04:21:19;;;;;;;1.70;0.70;;;;;;;14.89;69.58;100637.75;4884726;29;20028;-71
2022/07/26 04:23:45;;;;;;;2.53;0.77;;;;;;;14.88;69.39;100634.16;4897195;29;20453;-72
2022/07/26 04:26:12;;;;;;;3.17;0.85;;;;;;;14.89;69.37;100640.50;4858260;29;20091;-72
2022/07/26 04:28:38;;;;;;;1.67;0.52;;;;;;;14.89;69.04;100635.78;4885705;29;20085;-72
2022/07/26 04:31:04;;;;;;;1.67;0.63;;;;;;;14.94;68.84;100640.44;4876563;29;20524;-73
2022/07/26 04:33:30;;;;;;;4.38;1.08;;;;;;;14.92;69.19;100648.16;4871568;29;20093;-71
2022/07/26 04:35:55;;;;;;;4.78;0.95;;;;;;;14.92;68.61;100646.25;4878647;29;20037;-72
2022/07/26 04:38:21;;;;;;;1.50;0.60;;;;;;;14.91;68.97;100652.03;4894338;29;20037;-72
2022/07/26 04:40:51;;;;;;;1.80;0.60;;;;;;;14.90;68.99;100644.91;4868882;29;20487;-72
2022/07/26 04:43:17;;;;;;;2.88;1.08;;;;;;;14.93;68.96;100661.63;4866474;29;20069;-70
2022/07/26 04:45:45;;;;;;;1.25;0.50;;;;;;;14.98;68.62;100660.78;4889660;29;20039;-73
2022/07/26 04:48:11;;;;;;;2.17;0.60;;;;;;;14.99;68.61;100654.97;4883408;29;20084;-71
2022/07/26 04:50:37;;;;;;;2.80;0.60;;;;;;;15.06;68.25;100662.91;4874693;29;20028;-70
2022/07/26 04:53:03;;;;;;;3.75;1.02;;;;;;;15.10;68.12;100665.88;4876788;29;20387;-72
2022/07/26 04:55:28;;;;;;;4.70;0.80;;;;;;;15.14;67.72;100665.03;4883384;29;20029;-73
2022/07/26 04:57:54;;;;;;;2.92;0.90;;;;;;;15.11;67.16;100654.59;4895203;29;20064;-72
2022/07/26 05:00:22;;;;;;;3.50;0.93;;;;;;;15.13;67.42;100663.38;4850659;29;20044;-72
2022/07/26 05:02:49;;;;;;;5.65;0.98;;;;;;;15.12;66.54;100661.72;4893591;29;20112;-71
2022/07/26 05:05:15;;;;;;;3.50;0.82;;;;;;;15.14;67.12;100669.69;4881215;29;20496;-70
2022/07/26 05:07:49;;;;;;;1.92;0.60;;;;;;;15.10;66.93;100652.13;4882949;29;20056;-70
2022/07/26 05:10:16;;;;;;;2.38;0.68;;;;;;;15.18;66.92;100668.81;4886276;29;20029;-71
2022/07/26 05:12:41;;;;;;;1.58;0.65;;;;;;;15.18;66.81;100663.31;4880727;29;20494;-71
2022/07/26 05:15:08;;;;;;;2.38;0.77;;;;;;;15.21;66.82;100681.22;4882198;29;20029;-71
2022/07/26 05:17:37;;;;;;;3.90;1.10;;;;;;;15.15;66.70;100680.44;4884611;29;20064;-72
2022/07/26 05:20:03;;;;;;;2.28;0.73;;;;;;;15.08;66.69;100685.44;4895996;29;20041;-71
2022/07/26 05:22:29;;;;;;;1.48;0.70;;;;;;;15.01;67.13;100679.50;4882721;29;20123;-71
2022/07/26 05:24:54;;;;;;;3.17;0.70;;;;;;;15.00;67.41;100686.09;4880812;29;20091;-72
2022/07/26 05:27:20;;;;;;;1.45;0.43;;;;;;;15.03;67.12;100680.00;4893382;29;20087;-71
2022/07/26 05:29:45;;;;;;;3.28;0.70;;;;;;;15.08;66.95;100684.66;4879783;29;20044;-72
2022/07/26 05:32:11;;;;;;;2.05;0.70;;;;;;;15.12;67.11;100692.03;4883203;29;20044;-72
2022/07/26 05:34:36;;;;;;;3.17;0.90;;;;;;;15.12;66.76;100692.03;4888680;29;20036;-72
2022/07/26 05:37:02;;;;;;;3.95;0.80;;;;;;;15.07;67.25;100689.34;4874544;29;20033;-73
2022/07/26 05:39:40;;;;;;;2.70;1.00;;;;;;;14.97;67.08;100679.22;4875642;29;20033;-74
2022/07/26 05:42:06;;;;;;;2.58;0.77;;;;;;;15.07;66.96;100694.84;4879714;29;20046;-74
2022/07/26 05:44:31;;;;;;;2.90;0.90;;;;;;;15.10;67.02;100698.94;4884599;29;20095;-73
2022/07/26 05:46:57;;;;;;;6.68;1.17;;;;;;;15.17;66.80;100699.41;4871027;29;20378;-73
2022/07/26 05:49:22;;;;;;;3.78;0.73;;;;;;;15.25;66.53;100698.00;4891033;29;20069;-73
2022/07/26 05:51:48;;;;;;;2.92;0.93;;;;;;;15.36;66.49;100699.50;4866598;29;20025;-73
2022/07/26 05:54:13;;;;;;;2.95;0.90;;;;;;;15.44;66.35;100698.88;4890746;29;20456;-72
2022/07/26 05:56:38;;;;;;;2.45;0.70;;;;;;;15.54;66.03;100690.50;4893105;29;20041;-73
2022/07/26 05:59:04;;;;;;;4.68;1.02;;;;;;;15.71;65.38;100701.06;4871328;29;20357;-73
2022/07/26 06:01:31;;;;;;;2.65;1.17;;;;;;;15.74;65.18;100705.19;4897511;29;20474;-73
2022/07/26 06:03:57;;;;;;;2.78;1.00;;;;;;;15.67;65.27;100690.91;4894467;29;20028;-72
2022/07/26 06:06:23;;;;;;;3.15;0.98;;;;;;;15.73;65.36;100700.75;4870712;29;20030;-72
2022/07/26 06:08:49;;;;;;;1.00;0.60;;;;;;;15.87;65.04;100706.41;4874761;29;20397;-73
2022/07/26 06:11:14;;;;;;;4.75;0.65;;;;;;;16.03;64.76;100712.53;4874521;29;20032;-73
2022/07/26 06:13:39;;;;;;;4.95;1.05;;;;;;;16.07;64.14;100708.09;4865655;29;20036;-73
2022/07/26 06:16:05;;;;;;;2.15;0.57;;;;;;;16.18;64.35;100717.06;4848957;29;20060;-73
2022/07/26 06:18:31;;;;;;;1.25;0.65;;;;;;;16.24;64.01;100710.34;4894841;29;20508;-75
2022/07/26 06:20:56;;;;;;;4.05;0.73;;;;;;;16.33;63.45;100724.31;4877716;29;20044;-74
2022/07/26 06:23:21;;;;;;;2.22;0.70;;;;;;;16.39;63.65;100723.09;4856430;29;20048;-75
2022/07/26 06:25:47;;;;;;;0.60;0.50;;;;;;;16.49;63.64;100722.97;4874379;29;20546;-73
2022/07/26 06:28:12;;;;;;;1.63;0.65;;;;;;;16.66;63.22;100721.59;4875593;29;20135;-73
2022/07/26 06:30:39;;;;;;;4.00;0.60;;;;;;;17.06;62.40;100722.09;4866772;29;20040;-72
2022/07/26 06:33:06;;;;;;;2.63;0.85;;;;;;;17.43;61.15;100720.31;4891529;29;20033;-74
2022/07/26 06:35:34;;;;;;;3.25;0.70;;;;;;;17.72;60.49;100730.28;4894968;29;20032;-73
2022/07/26 06:37:59;;;;;;;0.88;0.50;;;;;;;17.89;59.56;100724.16;4880276;29;20021;-71
2022/07/26 06:40:25;;;;;;;3.78;1.00;;;;;;;17.99;59.10;100728.66;4870306;29;20040;-74
2022/07/26 06:42:51;;;;;;;1.63;0.60;;;;;;;18.09;58.46;100728.44;4902663;29;20020;-72
2022/07/26 06:45:17;;;;;;;3.80;0.80;;;;;;;18.11;58.80;100726.22;4899354;29;20373;-73
2022/07/26 06:47:42;;;;;;;1.60;0.70;;;;;;;18.04;58.26;100725.81;4882009;29;20025;-72
2022/07/26 06:50:08;;;;;;;1.20;0.75;;;;;;;18.08;58.63;100721.28;4892817;29;20024;-75
2022/07/26 06:52:34;;;;;;;6.22;1.15;;;;;;;18.01;57.33;100727.25;4883680;29;20115;-71
2022/07/26 06:55:00;;;;;;;2.22;0.52;;;;;;;17.93;58.43;100737.09;4895431;29;20036;-74
2022/07/26 06:57:26;;;;;;;1.98;0.60;;;;;;;17.96;58.29;100747.53;4899977;29;20598;-74
2022/07/26 06:59:52;;;;;;;2.22;0.60;;;;;;;17.94;57.64;100727.63;4860973;29;20033;-74
2022/07/26 07:02:18;;;;;;;5.35;1.25;;;;;;;18.11;57.85;100753.88;4870654;29;20038;-73
2022/07/26 07:04:44;;;;;;;4.47;1.08;;;;;;;18.21;56.94;100758.34;4882294;29;20433;-74
2022/07/26 07:07:09;;;;;;;3.15;0.82;;;;;;;18.45;56.98;100756.16;4878453;29;20074;-71
2022/07/26 07:09:36;;;;;;;2.83;0.70;;;;;;;18.85;56.14;100755.53;4894572;29;20475;-72
2022/07/26 07:12:06;;;;;;;2.50;0.50;;;;;;;19.41;54.85;100766.41;4883014;29;20029;-72
2022/07/26 07:14:32;;;;;;;2.10;0.52;;;;;;;19.90;54.20;100761.72;4885923;29;20089;-73
2022/07/26 07:16:58;;;;;;;4.25;0.40;;;;;;;20.17;53.49;100770.97;4872066;29;20097;-75
2022/07/26 07:19:24;;;;;;;1.77;0.60;;;;;;;20.23;52.62;100769.69;4888010;29;20063;-74
2022/07/26 07:21:50;;;;;;;2.70;0.80;;;;;;;20.02;52.18;100778.59;4902375;29;20024;-74
2022/07/26 07:24:16;;;;;;;2.67;0.57;;;;;;;19.92;52.47;100781.66;4859406;29;20044;-74
2022/07/26 07:26:42;;;;;;;1.70;0.60;;;;;;;19.71;52.88;100782.22;4895757;29;20042;-73
2022/07/26 07:29:13;;;;;;;3.05;0.68;;;;;;;19.64;52.84;100787.41;4901566;29;20033;-74
2022/07/26 07:31:39;;;;;;;2.78;0.70;;;;;;;19.54;52.57;100787.66;4887504;29;20025;-74
2022/07/26 07:34:04;;;;;;;3.13;0.65;;;;;;;19.54;53.18;100776.56;4894097;29;20020;-75
2022/07/26 07:36:30;;;;;;;1.63;0.65;;;;;;;19.84;52.47;100776.91;4893563;29;20032;-74
2022/07/26 07:38:55;;;;;;;2.05;0.60;;;;;;;20.19;52.39;100785.34;4868294;29;20627;-74
2022/07/26 07:41:21;;;;;;;2.75;0.95;;;;;;;20.57;51.88;100776.44;4877094;29;20028;-75
2022/07/26 07:43:46;;;;;;;2.60;0.80;;;;;;;21.06;50.99;100785.47;4880852;29;20057;-74
2022/07/26 07:46:12;;;;;;;3.90;0.82;;;;;;;21.23;49.48;100778.22;4872423;29;20033;-74
2022/07/26 07:48:39;;;;;;;4.03;0.88;;;;;;;21.38;48.76;100791.63;4891452;29;20029;-75
2022/07/26 07:51:06;;;;;;;3.58;0.77;;;;;;;21.36;48.17;100787.53;4887508;29;20036;-75
2022/07/26 07:53:31;;;;;;;4.25;1.20;;;;;;;21.12;48.89;100793.66;4876051;29;20120;-76
2022/07/26 07:55:57;;;;;;;3.38;0.88;;;;;;;20.94;49.51;100782.53;4879520;29;20037;-75
2022/07/26 07:58:25;;;;;;;5.65;0.60;;;;;;;20.69;49.55;100784.97;4894889;29;20425;-75
2022/07/26 08:00:50;;;;;;;2.78;0.70;;;;;;;20.64;49.84;100785.09;4877389;29;20033;-73
2022/07/26 08:03:16;;;;;;;1.00;0.52;;;;;;;20.83;49.72;100792.34;4885425;29;20472;-74
2022/07/26 08:05:42;;;;;;;2.08;0.60;;;;;;;21.06;49.92;100796.56;4882538;29;20103;-73
2022/07/26 08:08:07;;;;;;;1.33;0.60;;;;;;;21.28;49.40;100783.63;4895700;29;20037;-73
2022/07/26 08:10:32;;;;;;;2.17;0.60;;;;;;;21.42;49.18;100791.78;4875917;29;20120;-71
2022/07/26 08:12:58;;;;;;;0.55;0.47;;;;;;;21.55;49.50;100785.25;4883537;29;20768;-71
2022/07/26 08:15:25;;;;;;;0.80;0.55;;;;;;;21.78;48.67;100785.00;4873591;29;20581;-72
2022/07/26 08:17:51;;;;;;;2.40;0.57;;;;;;;21.89;49.04;100777.06;4866796;29;20051;-72
2022/07/26 08:20:16;;;;;;;0.93;0.22;;;;;;;21.99;48.50;100787.88;4880785;29;20546;-73
2022/07/26 08:22:42;;;;;;;3.85;0.63;;;;;;;21.88;46.23;100787.41;4882466;29;20029;-72
2022/07/26 08:25:08;;;;;;;3.72;0.90;;;;;;;21.81;47.69;100786.28;4867386;29;20044;-74
2022/07/26 08:27:33;;;;;;;2.10;0.52;;;;;;;21.99;47.29;100793.44;4888775;29;20109;-73
2022/07/26 08:29:59;;;;;;;1.23;0.50;;;;;;;22.42;46.63;100794.38;4878148;29;20040;-74
2022/07/26 08:32:24;;;;;;;3.72;0.77;;;;;;;22.58;46.45;100791.81;4872056;29;20112;-72
2022/07/26 08:34:51;;;;;;;2.50;0.50;;;;;;;22.93;45.83;100791.53;4889986;29;20056;-72
2022/07/26 08:37:17;;;;;;;1.13;0.38;;;;;;;23.37;45.06;100797.53;4876432;29;20044;-72
2022/07/26 08:39:42;;;;;;;2.08;0.75;;;;;;;23.80;44.27;100801.81;4891567;29;20040;-75
2022/07/26 08:42:16;;;;;;;7.63;0.80;;;;;;;24.23;43.36;100789.28;4876480;29;20067;-72
2022/07/26 08:44:43;;;;;;;3.30;0.80;;;;;;;24.39;42.36;100799.75;4876165;29;20483;-72
2022/07/26 08:47:16;;;;;;;1.42;0.43;;;;;;;24.20;42.69;100797.56;4888707;29;20271;-74
2022/07/26 08:49:43;;;;;;;3.70;0.68;;;;;;;23.98;42.73;100801.63;4871099;29;20042;-73
2022/07/26 08:52:10;;;;;;;1.02;0.57;;;;;;;23.98;43.12;100807.22;4888748;29;20060;-72
2022/07/26 08:54:35;;;;;;;1.92;0.75;;;;;;;24.23;43.03;100800.47;4889676;29;20092;-73
2022/07/26 08:57:01;;;;;;;5.00;0.73;;;;;;;24.27;41.65;100808.97;4880360;29;20075;-73
2022/07/26 08:59:27;;;;;;;2.67;0.60;;;;;;;24.37;41.82;100802.06;4884570;29;20047;-72
2022/07/26 09:01:57;;;;;;;2.15;0.50;;;;;;;24.78;41.28;100805.78;4892835;29;20400;-71
2022/07/26 09:04:29;;;;;;;2.40;0.50;;;;;;;25.23;40.77;100804.69;4892894;29;20063;-74
2022/07/26 09:07:04;;;;;;;0.82;0.40;;;;;;;25.58;40.50;100803.22;4881814;29;20087;-72
2022/07/26 09:09:31;;;;;;;3.55;0.77;;;;;;;25.43;39.39;100802.03;4874574;29;20085;-71
2022/07/26 09:11:58;;;;;;;1.58;0.50;;;;;;;24.99;38.87;100793.59;4881394;29;20025;-72
2022/07/26 09:14:36;;;;;;;3.15;0.60;;;;;;;24.81;39.71;100805.06;4880584;29;20040;-72
2022/07/26 09:17:01;;;;;;;2.00;0.68;;;;;;;24.77;40.49;100803.34;4865002;29;20092;-73
2022/07/26 09:19:27;;;;;;;4.57;0.60;;;;;;;24.48;39.95;100806.03;4895617;29;20037;-74
2022/07/26 09:21:54;;;;;;;1.67;0.60;;;;;;;24.73;39.95;100808.81;4875117;29;20035;-75
2022/07/26 09:24:39;;;;;;;0.82;0.50;;;;;;;24.95;39.37;100815.03;4901329;29;20040;-75
2022/07/26 09:27:07;;;;;;;7.07;0.93;;;;;;;25.32;39.26;100806.50;4899683;29;20040;-73
2022/07/26 09:29:49;;;;;;;1.48;0.60;;;;;;;25.38;38.25;100817.09;4891351;29;20082;-74
2022/07/26 09:32:24;;;;;;;3.75;0.90;;;;;;;25.16;38.58;100814.84;4894559;29;20055;-74
2022/07/26 09:35:11;;;;;;;4.32;0.80;;;;;;;24.98;38.62;100822.72;4893281;29;20045;-74
2022/07/26 09:37:39;;;;;;;4.15;0.80;;;;;;;24.89;38.90;100826.47;4881740;29;20032;-74
2022/07/26 09:40:12;;;;;;;3.35;0.70;;;;;;;25.21;38.91;100818.19;4877827;29;20040;-75
2022/07/26 09:42:53;;;;;;;2.75;0.70;;;;;;;26.25;38.09;100825.75;4877264;29;20116;-74
2022/07/26 09:45:18;;;;;;;1.92;0.60;;;;;;;27.13;35.86;100840.53;4900210;29;20036;-75
2022/07/26 09:47:44;;;;;;;2.88;0.65;;;;;;;28.02;34.57;100847.09;4863267;29;20029;-74
2022/07/26 09:50:15;;;;;;;3.90;0.90;;;;;;;27.65;34.48;100844.78;4875832;29;20384;-74
2022/07/26 09:52:56;;;;;;;2.85;0.65;;;;;;;27.39;35.06;100836.28;4890427;29;20033;-75
2022/07/26 09:55:22;;;;;;;2.17;0.65;;;;;;;27.79;34.71;100837.84;4886178;29;20093;-75
2022/07/26 09:57:50;;;;;;;2.55;0.80;;;;;;;28.35;33.07;100839.97;4892451;29;20080;-75
2022/07/26 10:00:16;;;;;;;2.70;0.70;;;;;;;28.37;32.79;100840.44;4892824;29;20504;-74
2022/07/26 10:02:41;;;;;;;3.20;0.50;;;;;;;27.92;32.55;100828.03;4891072;29;20049;-76
2022/07/26 10:05:07;;;;;;;3.42;0.73;;;;;;;27.39;34.55;100819.44;4873335;29;20028;-75
2022/07/26 10:07:32;;;;;;;1.35;0.57;;;;;;;27.11;34.90;100828.88;4887615;29;20024;-74
2022/07/26 10:10:07;;;;;;;1.23;0.50;;;;;;;26.71;35.71;100830.00;4869127;29;20036;-73
2022/07/26 10:12:34;;;;;;;2.95;0.70;;;;;;;26.16;36.35;100818.72;4895753;29;20040;-75
2022/07/26 10:14:59;;;;;;;4.47;0.60;;;;;;;26.39;36.71;100818.88;4875261;29;20045;-73
2022/07/26 10:17:28;;;;;;;2.13;0.60;;;;;;;26.46;35.91;100816.25;4897529;29;20033;-75
2022/07/26 10:19:55;;;;;;;0.80;0.47;;;;;;;26.02;36.50;100810.75;4887489;29;20116;-74
2022/07/26 10:22:29;;;;;;;1.83;0.45;;;;;;;25.64;37.20;100807.38;4885379;29;20111;-75
2022/07/26 10:25:16;;;;;;;1.95;0.50;;;;;;;25.47;37.65;100802.94;4872775;29;20085;-73
2022/07/26 10:27:44;;;;;;;1.95;0.70;;;;;;;25.65;37.75;100813.81;4891576;29;20037;-73
2022/07/26 10:30:18;;;;;;;1.30;0.40;;;;;;;26.56;37.01;100829.69;4879531;29;20029;-74
2022/07/26 10:32:50;;;;;;;1.55;0.35;;;;;;;27.18;34.96;100854.28;4878254;29;20025;-74
2022/07/26 10:35:52;;;;;;;1.02;0.50;;;;;;;26.82;34.60;100853.50;4881668;29;20132;-73
2022/07/26 10:38:25;;;;;;;3.40;0.50;;;;;;;26.32;35.56;100852.34;4878023;29;20480;-75
2022/07/26 10:41:04;;;;;;;1.95;0.50;;;;;;;25.61;36.25;100864.94;4885677;29;20032;-74
2022/07/26 10:43:30;;;;;;;2.95;0.73;;;;;;;25.63;36.54;100855.34;4895004;29;20029;-73
2022/07/26 10:46:29;;;;;;;1.88;0.52;;;;;;;26.26;36.68;100858.22;4897051;29;20122;-73
2022/07/26 10:49:05;;;;;;;2.92;1.15;;;;;;;26.75;34.96;100858.97;4860133;29;20048;-72
2022/07/26 10:51:35;;;;;;;2.72;0.65;;;;;;;26.75;34.24;100865.41;4887241;29;20420;-73
2022/07/26 10:54:09;;;;;;;2.83;0.88;;;;;;;25.80;35.71;100871.81;4884192;29;20037;-74
2022/07/26 10:56:35;;;;;;;1.75;0.60;;;;;;;24.76;37.24;100864.03;4885612;29;20033;-73
2022/07/26 10:59:02;;;;;;;1.98;0.47;;;;;;;24.11;38.89;100863.88;4886293;29;20037;-73
2022/07/26 11:01:39;;;;;;;0.82;0.43;;;;;;;23.82;39.87;100866.50;4861225;29;20091;-74
2022/07/26 11:04:06;;;;;;;3.78;0.68;;;;;;;23.66;39.76;100865.53;4879811;29;20033;-73
2022/07/26 11:06:31;;;;;;;4.57;0.75;;;;;;;23.72;40.47;100861.38;4861934;29;20120;-74
2022/07/26 11:08:57;;;;;;;5.45;0.85;;;;;;;24.13;40.03;100864.38;4882938;29;20062;-75
2022/07/26 11:11:31;;;;;;;3.35;0.50;;;;;;;25.31;38.46;100872.88;4876777;29;20021;-72
2022/07/26 11:14:12;;;;;;;4.60;0.60;;;;;;;26.53;35.76;100864.03;4879334;29;20037;-75
2022/07/26 11:16:38;;;;;;;5.07;0.70;;;;;;;27.77;33.29;100871.09;4879470;29;20071;-75
2022/07/26 11:19:20;;;;;;;1.90;0.63;;;;;;;29.17;31.73;100864.88;4896130;29;20033;-75
2022/07/26 11:21:53;;;;;;;1.85;0.63;;;;;;;30.33;30.01;100869.72;4878547;29;20056;-73
2022/07/26 11:24:20;;;;;;;2.75;0.80;;;;;;;30.40;29.57;100866.13;4884526;29;20449;-75